createdAt,value
2019-02-28T00:02:22.452Z,-1.72
2019-02-28T00:04:51.003Z,-1.72
2019-02-28T00:07:21.883Z,-1.58
2019-02-28T00:09:52.634Z,-1.44
2019-02-28T00:12:23.265Z,-1.25
2019-02-28T00:14:54.141Z,-1.31
2019-02-28T00:17:24.773Z,-1.35
2019-02-28T00:19:57.986Z,-1.40
2019-02-28T00:22:27.612Z,-1.48
2019-02-28T00:25:01.061Z,-1.39
2019-02-28T00:27:29.651Z,-1.30
2019-02-28T00:30:00.408Z,-1.34
2019-02-28T00:32:31.361Z,-1.43
2019-02-28T00:35:02.099Z,-1.34
2019-02-28T00:37:33.788Z,-1.26
2019-02-28T00:40:07.527Z,-1.42
2019-02-28T00:42:38.057Z,-1.52
2019-02-28T00:45:15.957Z,-1.54
2019-02-28T00:47:47.489Z,-1.54
2019-02-28T00:50:18.483Z,-1.58
2019-02-28T00:52:49.239Z,-1.74
2019-02-28T00:55:20.112Z,-1.88
2019-02-28T00:57:50.863Z,-1.97
2019-02-28T01:00:22.111Z,-2.02
2019-02-28T01:02:53.721Z,-2.08
2019-02-28T01:05:24.248Z,-1.98
2019-02-28T01:07:54.986Z,-2.10
2019-02-28T01:10:25.743Z,-2.16
2019-02-28T01:12:56.410Z,-2.23
2019-02-28T01:15:27.064Z,-2.28
2019-02-28T01:18:00.491Z,-2.32
2019-02-28T01:20:29.984Z,-2.34
2019-02-28T01:23:00.635Z,-2.38
2019-02-28T01:25:31.406Z,-2.46
2019-02-28T01:28:02.060Z,-2.50
2019-02-28T01:30:32.897Z,-2.54
2019-02-28T01:33:03.651Z,-2.58
2019-02-28T01:35:37.530Z,-2.58
2019-02-28T01:38:06.710Z,-2.53
2019-02-28T01:40:38.394Z,-2.26
2019-02-28T01:43:09.037Z,-2.23
2019-02-28T01:45:43.490Z,-2.32
2019-02-28T01:48:12.383Z,-2.20
2019-02-28T01:50:43.017Z,-2.34
2019-02-28T01:53:18.680Z,-2.47
2019-02-28T01:55:46.267Z,-2.48
2019-02-28T01:58:17.472Z,-2.57
2019-02-28T02:00:48.404Z,-2.64
2019-02-28T02:03:19.041Z,-2.56
2019-02-28T02:05:51.746Z,-2.63
2019-02-28T02:08:21.058Z,-2.70
2019-02-28T02:10:54.964Z,-2.64
2019-02-28T02:13:23.911Z,-2.20
2019-02-28T02:15:54.767Z,-2.17
2019-02-28T02:18:25.505Z,-2.26
2019-02-28T02:20:57.407Z,-2.48
2019-02-28T02:23:28.341Z,-2.45
2019-02-28T02:25:58.308Z,-2.39
2019-02-28T02:28:28.855Z,-2.46
2019-02-28T02:30:59.602Z,-2.46
2019-02-28T02:33:30.333Z,-2.07
2019-02-28T02:36:01.241Z,-1.94
2019-02-28T02:38:40.120Z,-1.99
2019-02-28T02:41:05.579Z,-2.00
2019-02-28T02:43:36.234Z,-1.92
2019-02-28T02:46:07.087Z,-1.95
2019-02-28T02:48:38.635Z,-1.89
2019-02-28T02:51:11.028Z,-1.86
2019-02-28T02:53:43.367Z,-1.94
2019-02-28T02:56:13.878Z,-1.94
2019-02-28T02:58:44.540Z,-1.90
2019-02-28T03:01:15.178Z,-1.93
2019-02-28T03:03:45.927Z,-1.98
2019-02-28T03:06:16.785Z,-2.00
2019-02-28T03:08:47.434Z,-1.92
2019-02-28T03:11:18.189Z,-2.02
2019-02-28T03:13:49.059Z,-2.05
2019-02-28T03:16:19.918Z,-2.12
2019-02-28T03:18:56.860Z,-2.10
2019-02-28T03:21:22.737Z,-1.97
2019-02-28T03:23:53.643Z,-1.85
2019-02-28T03:26:24.470Z,-1.79
2019-02-28T03:28:55.222Z,-1.77
2019-02-28T03:31:25.875Z,-1.78
2019-02-28T03:34:10.436Z,-1.75
2019-02-28T03:36:28.812Z,-1.80
2019-02-28T03:39:00.469Z,-1.77
2019-02-28T03:41:31.324Z,-1.70
2019-02-28T03:44:02.097Z,-1.78
2019-02-28T03:46:32.753Z,-1.79
2019-02-28T03:49:11.078Z,-1.80
2019-02-28T03:51:35.876Z,-1.88
2019-02-28T03:54:06.529Z,-1.88
2019-02-28T03:56:37.177Z,-1.93
2019-02-28T03:59:07.948Z,-1.91
2019-02-28T04:01:44.851Z,-1.89
2019-02-28T04:04:12.370Z,-1.87
2019-02-28T04:06:42.955Z,-1.82
2019-02-28T04:09:13.728Z,-1.84
2019-02-28T04:11:44.568Z,-1.82
2019-02-28T04:14:15.438Z,-1.78
2019-02-28T04:16:52.525Z,-1.76
2019-02-28T04:19:22.732Z,-1.75
2019-02-28T04:21:50.544Z,-1.71
2019-02-28T04:24:21.305Z,-1.69
2019-02-28T04:26:52.058Z,-1.67
2019-02-28T04:29:30.077Z,-1.64
2019-02-28T04:31:54.897Z,-1.64
2019-02-28T04:34:25.770Z,-1.59
2019-02-28T04:36:56.518Z,-1.60
2019-02-28T04:39:27.766Z,-1.56
2019-02-28T04:41:58.741Z,-1.51
2019-02-28T04:44:29.494Z,-1.42
2019-02-28T04:47:00.134Z,-1.41
2019-02-28T04:49:30.882Z,-1.39
2019-02-28T04:52:01.697Z,-1.36
2019-02-28T04:54:32.396Z,-1.32
2019-02-28T04:57:03.145Z,-1.28
2019-02-28T04:59:34.338Z,-1.27
2019-02-28T05:02:05.571Z,-1.23
2019-02-28T05:04:36.840Z,-1.17
2019-02-28T05:07:07.601Z,-1.19
2019-02-28T05:09:38.243Z,-1.13
2019-02-28T05:12:08.321Z,-1.07
2019-02-28T05:14:38.780Z,-1.06
2019-02-28T05:17:09.482Z,-1.02
2019-02-28T05:19:40.234Z,-0.99
2019-02-28T05:22:11.093Z,-0.99
2019-02-28T05:24:42.585Z,-0.96
2019-02-28T05:27:14.049Z,-0.87
2019-02-28T05:29:44.885Z,-0.89
2019-02-28T05:32:15.745Z,-0.82
2019-02-28T05:34:47.407Z,-0.78
2019-02-28T05:37:18.485Z,-0.74
2019-02-28T05:39:50.254Z,-0.68
2019-02-28T05:42:23.342Z,-0.65
2019-02-28T05:44:53.194Z,-0.60
2019-02-28T05:47:25.958Z,-0.62
2019-02-28T05:49:56.140Z,-0.54
2019-02-28T05:52:26.905Z,-0.38
2019-02-28T05:54:57.920Z,-0.34
2019-02-28T05:57:28.721Z,-0.21
2019-02-28T06:00:01.955Z,-0.18
2019-02-28T06:02:31.660Z,-0.13
2019-02-28T06:05:02.421Z,-0.03
2019-02-28T06:07:33.268Z,0.06
2019-02-28T06:10:04.832Z,0.20
2019-02-28T06:12:35.379Z,0.30
2019-02-28T06:15:09.092Z,0.42
2019-02-28T06:17:39.642Z,0.52
2019-02-28T06:20:09.717Z,0.58
2019-02-28T06:22:39.940Z,0.65
2019-02-28T06:25:11.622Z,0.72
2019-02-28T06:27:48.851Z,0.79
2019-02-28T06:30:18.032Z,0.90
2019-02-28T06:32:48.465Z,0.94
2019-02-28T06:35:20.329Z,1.02
2019-02-28T06:37:50.276Z,1.03
2019-02-28T06:40:21.950Z,0.94
2019-02-28T06:42:52.823Z,1.10
2019-02-28T06:45:23.355Z,1.16
2019-02-28T06:47:53.537Z,1.13
2019-02-28T06:50:23.943Z,1.21
2019-02-28T06:52:56.461Z,1.03
2019-02-28T06:55:27.496Z,0.93
2019-02-28T06:57:59.109Z,0.98
2019-02-28T07:00:30.230Z,1.10
2019-02-28T07:03:03.331Z,1.04
2019-02-28T07:05:32.982Z,1.11
2019-02-28T07:08:03.839Z,0.99
2019-02-28T07:10:34.488Z,1.10
2019-02-28T07:13:05.649Z,0.97
2019-02-28T07:15:36.409Z,1.00
2019-02-28T07:18:07.141Z,1.16
2019-02-28T07:20:37.914Z,1.20
2019-02-28T07:23:08.667Z,1.21
2019-02-28T07:25:39.426Z,1.25
2019-02-28T07:28:10.279Z,1.54
2019-02-28T07:30:41.038Z,1.67
2019-02-28T07:33:11.787Z,1.71
2019-02-28T07:35:42.319Z,1.83
2019-02-28T07:38:12.287Z,1.71
2019-02-28T07:40:42.922Z,1.82
2019-02-28T07:43:13.472Z,1.82
2019-02-28T07:45:44.123Z,1.91
2019-02-28T07:48:14.963Z,2.03
2019-02-28T07:50:46.713Z,2.32
2019-02-28T07:53:18.124Z,2.22
2019-02-28T07:55:49.532Z,2.09
2019-02-28T07:58:21.048Z,2.13
2019-02-28T08:00:52.662Z,2.18
2019-02-28T08:03:24.105Z,2.13
2019-02-28T08:05:54.757Z,2.42
2019-02-28T08:08:26.356Z,2.58
2019-02-28T08:10:57.594Z,2.68
2019-02-28T08:13:28.331Z,2.61
2019-02-28T08:16:00.324Z,2.52
2019-02-28T08:18:31.648Z,2.62
2019-02-28T08:21:02.251Z,2.61
2019-02-28T08:23:32.992Z,2.76
2019-02-28T08:26:03.633Z,3.19
2019-02-28T08:28:36.808Z,3.19
2019-02-28T08:31:05.655Z,3.11
2019-02-28T08:33:36.306Z,3.14
2019-02-28T08:36:11.602Z,3.08
2019-02-28T08:38:39.159Z,3.17
2019-02-28T08:41:10.717Z,3.11
2019-02-28T08:43:41.484Z,3.12
2019-02-28T08:46:13.740Z,3.31
2019-02-28T08:48:43.504Z,3.08
2019-02-28T08:51:14.373Z,3.38
2019-02-28T08:53:44.008Z,3.62
2019-02-28T08:56:14.933Z,3.44
2019-02-28T08:58:45.481Z,3.48
2019-02-28T09:01:15.348Z,3.66
2019-02-28T09:03:46.068Z,3.78
2019-02-28T09:06:15.743Z,3.97
2019-02-28T09:08:46.247Z,4.00
2019-02-28T09:11:20.774Z,3.83
2019-02-28T09:13:47.976Z,3.79
2019-02-28T09:16:17.937Z,3.66
2019-02-28T09:18:48.340Z,4.18
2019-02-28T09:21:19.051Z,4.07
2019-02-28T09:23:49.821Z,4.28
2019-02-28T09:26:20.415Z,4.17
2019-02-28T09:28:50.949Z,4.29
2019-02-28T09:31:24.304Z,4.10
2019-02-28T09:33:55.442Z,3.95
2019-02-28T09:36:26.790Z,3.94
2019-02-28T09:38:59.572Z,3.81
2019-02-28T09:41:29.727Z,3.79
2019-02-28T09:44:00.483Z,3.98
2019-02-28T09:46:30.360Z,4.23
2019-02-28T09:49:00.882Z,4.07
2019-02-28T09:51:31.911Z,4.27
2019-02-28T09:54:03.212Z,4.36
2019-02-28T09:56:33.741Z,4.19
2019-02-28T09:59:03.974Z,4.05
2019-02-28T10:01:34.650Z,4.16
2019-02-28T10:04:04.810Z,4.23
2019-02-28T10:06:35.342Z,4.10
2019-02-28T10:09:08.812Z,4.28
2019-02-28T10:11:40.497Z,4.52
2019-02-28T10:14:13.686Z,4.19
2019-02-28T10:16:44.066Z,4.08
2019-02-28T10:19:14.159Z,4.10
2019-02-28T10:21:51.631Z,4.06
2019-02-28T10:24:16.843Z,4.06
2019-02-28T10:26:48.268Z,4.33
2019-02-28T10:29:18.551Z,4.43
2019-02-28T10:31:49.144Z,4.59
2019-02-28T10:34:20.180Z,4.49
2019-02-28T10:36:50.730Z,4.20
2019-02-28T10:39:21.279Z,4.20
2019-02-28T10:41:52.266Z,4.15
2019-02-28T10:44:22.888Z,4.17
2019-02-28T10:46:53.837Z,4.30
2019-02-28T10:49:24.935Z,4.17
2019-02-28T10:51:55.765Z,4.27
2019-02-28T10:54:26.115Z,4.39
2019-02-28T10:56:56.641Z,4.34
2019-02-28T10:59:27.208Z,4.35
2019-02-28T11:01:57.755Z,4.26
2019-02-28T11:04:27.719Z,4.24
2019-02-28T11:06:59.397Z,4.14
2019-02-28T11:09:30.104Z,4.06
2019-02-28T11:12:00.674Z,4.22
2019-02-28T11:14:31.116Z,4.10
2019-02-28T11:17:01.565Z,4.17
2019-02-28T11:19:31.385Z,4.10
2019-02-28T11:22:04.895Z,4.19
2019-02-28T11:24:34.030Z,4.06
2019-02-28T11:27:05.022Z,3.90
2019-02-28T11:29:36.353Z,4.14
2019-02-28T11:32:06.907Z,4.08
2019-02-28T11:34:36.865Z,4.00
2019-02-28T11:37:09.067Z,3.97
2019-02-28T11:39:39.562Z,3.81
2019-02-28T11:42:11.236Z,3.82
2019-02-28T11:44:43.535Z,3.86
2019-02-28T11:47:16.441Z,3.86
2019-02-28T11:49:47.298Z,3.91
2019-02-28T11:52:18.053Z,3.94
2019-02-28T11:54:48.808Z,4.04
2019-02-28T11:57:20.671Z,4.23
2019-02-28T11:59:51.234Z,4.41
2019-02-28T12:02:21.990Z,4.36
2019-02-28T12:04:52.828Z,4.32
2019-02-28T12:07:23.579Z,4.20
2019-02-28T12:09:54.742Z,4.31
2019-02-28T12:12:26.133Z,4.33
2019-02-28T12:14:56.986Z,4.39
2019-02-28T12:17:29.369Z,4.41
2019-02-28T12:19:59.706Z,4.34
2019-02-28T12:22:30.459Z,4.29
2019-02-28T12:25:01.214Z,4.16
2019-02-28T12:27:31.981Z,4.06
2019-02-28T12:30:02.633Z,4.04
2019-02-28T12:32:33.373Z,4.00
2019-02-28T12:35:04.738Z,3.99
2019-02-28T12:37:35.084Z,4.03
2019-02-28T12:40:07.414Z,4.08
2019-02-28T12:42:39.266Z,4.08
2019-02-28T12:45:13.481Z,4.10
2019-02-28T12:47:45.872Z,4.09
2019-02-28T12:50:16.217Z,4.02
2019-02-28T12:52:49.987Z,4.05
2019-02-28T12:55:20.940Z,4.05
2019-02-28T12:57:51.736Z,4.06
2019-02-28T13:00:36.432Z,4.06
2019-02-28T13:03:09.050Z,4.11
2019-02-28T13:05:39.250Z,4.11
2019-02-28T13:08:10.005Z,4.13
2019-02-28T13:10:42.174Z,4.15
2019-02-28T13:13:12.841Z,4.13
2019-02-28T13:15:45.389Z,4.13
2019-02-28T13:18:15.781Z,4.15
2019-02-28T13:20:46.560Z,4.11
2019-02-28T13:23:17.321Z,4.08
2019-02-28T13:25:48.047Z,4.07
2019-02-28T13:28:22.116Z,4.07
2019-02-28T13:30:52.064Z,4.11
2019-02-28T13:33:23.598Z,4.15
2019-02-28T13:35:54.436Z,4.15
2019-02-28T13:38:25.188Z,4.15
2019-02-28T13:40:56.047Z,4.08
2019-02-28T13:43:27.332Z,4.09
2019-02-28T13:45:58.063Z,4.10
2019-02-28T13:48:33.103Z,4.10
2019-02-28T13:51:02.565Z,4.11
2019-02-28T13:53:33.206Z,4.12
2019-02-28T13:56:05.032Z,4.16
2019-02-28T13:58:35.627Z,4.18
2019-02-28T14:01:06.581Z,4.17
2019-02-28T14:03:37.448Z,4.16
2019-02-28T14:06:08.205Z,4.18
2019-02-28T14:08:39.060Z,4.18
2019-02-28T14:11:10.968Z,4.18
2019-02-28T14:13:41.497Z,4.17
2019-02-28T14:16:12.036Z,4.16
2019-02-28T14:18:45.519Z,4.14
2019-02-28T14:21:14.875Z,4.14
2019-02-28T14:23:45.509Z,4.07
2019-02-28T14:26:15.479Z,4.07
2019-02-28T14:28:46.009Z,4.10
2019-02-28T14:31:16.763Z,4.08
2019-02-28T14:33:51.465Z,4.07
2019-02-28T14:36:24.206Z,4.08
2019-02-28T14:38:55.043Z,4.08
2019-02-28T14:41:28.438Z,4.09
2019-02-28T14:43:57.592Z,4.06
2019-02-28T14:46:28.431Z,4.05
2019-02-28T14:48:59.186Z,4.13
2019-02-28T14:51:30.044Z,4.10
2019-02-28T14:54:00.813Z,4.14
2019-02-28T14:56:31.548Z,4.10
2019-02-28T14:59:02.099Z,4.13
2019-02-28T15:01:32.067Z,4.16
2019-02-28T15:04:02.784Z,4.20
2019-02-28T15:06:33.454Z,4.25
2019-02-28T15:09:05.235Z,4.27
2019-02-28T15:11:35.561Z,4.28
2019-02-28T15:14:08.430Z,4.29
2019-02-28T15:16:37.579Z,4.34
2019-02-28T15:19:08.350Z,4.37
2019-02-28T15:21:42.365Z,4.36
2019-02-28T15:24:11.070Z,4.36
2019-02-28T15:26:41.928Z,4.35
2019-02-28T15:29:12.697Z,4.39
2019-02-28T15:31:44.215Z,4.42
2019-02-28T15:34:14.719Z,4.41
2019-02-28T15:36:45.469Z,4.43
2019-02-28T15:39:17.031Z,4.41
2019-02-28T15:41:48.512Z,4.43
2019-02-28T15:44:20.270Z,4.44
2019-02-28T15:46:51.330Z,4.44
2019-02-28T15:49:22.307Z,4.44
2019-02-28T15:51:53.145Z,4.44
2019-02-28T15:54:25.282Z,4.43
2019-02-28T15:56:56.460Z,4.45
2019-02-28T15:59:27.330Z,4.46
2019-02-28T16:01:57.437Z,4.45
2019-02-28T16:04:27.649Z,4.42
2019-02-28T16:06:58.267Z,4.39
2019-02-28T16:09:28.836Z,4.40
2019-02-28T16:11:59.591Z,4.40
2019-02-28T16:14:31.404Z,4.36
2019-02-28T16:17:03.589Z,4.34
2019-02-28T16:19:34.303Z,4.36
2019-02-28T16:22:05.073Z,4.38
2019-02-28T16:24:36.766Z,4.35
2019-02-28T16:27:08.015Z,4.32
2019-02-28T16:29:38.870Z,4.33
2019-02-28T16:32:09.503Z,4.36
2019-02-28T16:34:42.234Z,4.28
2019-02-28T16:37:12.341Z,4.37
2019-02-28T16:39:43.929Z,4.44
2019-02-28T16:42:14.576Z,4.42
2019-02-28T16:44:45.323Z,4.47
2019-02-28T16:47:16.174Z,4.44
2019-02-28T16:49:47.030Z,4.55
2019-02-28T16:52:17.802Z,4.59
2019-02-28T16:54:48.437Z,4.59
2019-02-28T16:57:19.192Z,4.55
2019-02-28T16:59:50.047Z,4.54
2019-02-28T17:02:20.699Z,4.55
2019-02-28T17:04:51.979Z,4.61
2019-02-28T17:07:22.737Z,4.60
2019-02-28T17:09:53.061Z,4.61
2019-02-28T17:12:31.300Z,4.61
2019-02-28T17:15:01.729Z,4.64
2019-02-28T17:17:34.036Z,4.64
2019-02-28T17:20:06.358Z,4.62
2019-02-28T17:22:37.586Z,4.61
2019-02-28T17:25:08.240Z,4.58
2019-02-28T17:27:48.999Z,4.55
2019-02-28T17:30:21.287Z,4.53
2019-02-28T17:32:51.938Z,4.53
2019-02-28T17:35:22.606Z,4.49
2019-02-28T17:37:53.463Z,4.51
2019-02-28T17:40:26.250Z,4.50
2019-02-28T17:42:56.711Z,4.48
2019-02-28T17:45:28.885Z,4.43
2019-02-28T17:48:14.563Z,4.39
2019-02-28T17:50:51.561Z,4.37
2019-02-28T17:53:49.617Z,4.32
2019-02-28T17:56:40.842Z,4.28
2019-02-28T17:59:16.699Z,4.23
2019-02-28T18:02:01.561Z,4.18
2019-02-28T18:04:46.652Z,4.18
2019-02-28T18:07:23.597Z,4.16
2019-02-28T18:09:58.258Z,4.12
2019-02-28T18:12:45.328Z,4.12
2019-02-28T18:15:28.004Z,4.11
2019-02-28T18:18:17.982Z,4.12
2019-02-28T18:21:26.504Z,4.13
2019-02-28T18:24:17.175Z,4.12
2019-02-28T18:26:48.997Z,4.11
2019-02-28T18:29:39.157Z,4.12
2019-02-28T18:32:10.000Z,4.13
2019-02-28T18:34:40.649Z,4.14
2019-02-28T18:37:11.929Z,4.15
2019-02-28T18:39:44.728Z,4.16
2019-02-28T18:42:16.023Z,4.15
2019-02-28T18:44:50.123Z,4.14
2019-02-28T18:47:22.523Z,4.14
2019-02-28T18:49:53.268Z,4.11
2019-02-28T18:52:24.435Z,4.10
2019-02-28T18:54:54.879Z,4.12
2019-02-28T18:57:25.520Z,4.10
2019-02-28T18:59:56.282Z,4.07
2019-02-28T19:02:27.041Z,4.03
2019-02-28T19:04:57.674Z,4.01
2019-02-28T19:07:27.642Z,3.87
2019-02-28T19:09:58.174Z,3.86
2019-02-28T19:12:28.825Z,3.82
2019-02-28T19:14:59.565Z,3.82
2019-02-28T19:17:30.234Z,3.82
2019-02-28T19:20:01.509Z,3.80
2019-02-28T19:22:32.251Z,3.81
2019-02-28T19:25:02.905Z,3.79
2019-02-28T19:27:33.761Z,3.81
2019-02-28T19:30:10.340Z,3.77
2019-02-28T19:32:40.875Z,3.74
2019-02-28T19:35:11.746Z,3.68
2019-02-28T19:37:42.383Z,3.59
2019-02-28T19:40:12.958Z,3.55
2019-02-28T19:42:43.189Z,3.43
2019-02-28T19:45:32.011Z,3.33
2019-02-28T19:48:02.395Z,3.30
2019-02-28T19:50:33.149Z,3.25
2019-02-28T19:53:03.882Z,3.14
2019-02-28T19:55:34.858Z,3.15
2019-02-28T19:58:05.492Z,3.05
2019-02-28T20:00:36.265Z,3.17
2019-02-28T20:03:07.121Z,3.25
2019-02-28T20:05:37.980Z,3.23
2019-02-28T20:08:08.721Z,3.34
2019-02-28T20:10:41.631Z,3.34
2019-02-28T20:13:12.487Z,3.32
2019-02-28T20:15:42.448Z,3.28
2019-02-28T20:18:12.751Z,3.23
2019-02-28T20:20:43.626Z,3.36
2019-02-28T20:23:14.256Z,3.45
2019-02-28T20:25:45.030Z,3.43
2019-02-28T20:28:15.684Z,3.55
2019-02-28T20:30:47.606Z,3.55
2019-02-28T20:33:18.193Z,3.61
2019-02-28T20:35:49.069Z,3.60
2019-02-28T20:38:19.868Z,3.71
2019-02-28T20:40:50.576Z,3.73
2019-02-28T20:43:21.737Z,3.76
2019-02-28T20:45:52.275Z,3.80
2019-02-28T20:48:23.944Z,3.86
2019-02-28T20:50:55.433Z,3.86
2019-02-28T20:53:26.289Z,3.90
2019-02-28T20:55:57.025Z,3.90
2019-02-28T20:58:27.695Z,4.04
2019-02-28T21:00:58.552Z,4.08
2019-02-28T21:03:29.287Z,4.13
2019-02-28T21:06:00.058Z,4.14
2019-02-28T21:08:30.811Z,4.12
2019-02-28T21:11:01.466Z,4.18
2019-02-28T21:13:32.320Z,4.27
2019-02-28T21:16:03.073Z,4.37
2019-02-28T21:18:33.827Z,4.37
2019-02-28T21:21:04.687Z,4.30
2019-02-28T21:23:35.541Z,4.33
2019-02-28T21:26:06.293Z,4.39
2019-02-28T21:28:36.926Z,4.55
2019-02-28T21:31:07.598Z,4.68
2019-02-28T21:33:38.452Z,4.85
2019-02-28T21:36:09.411Z,4.94
2019-02-28T21:38:39.059Z,5.11
2019-02-28T21:41:09.486Z,5.28
2019-02-28T21:43:39.448Z,5.25
2019-02-28T21:46:09.973Z,5.22
2019-02-28T21:48:41.747Z,5.18
2019-02-28T21:51:12.502Z,5.13
2019-02-28T21:53:42.455Z,5.15
2019-02-28T21:56:13.685Z,5.17
2019-02-28T21:58:44.711Z,5.23
2019-02-28T22:01:15.091Z,5.44
2019-02-28T22:03:45.846Z,5.55
2019-02-28T22:06:16.617Z,5.74
2019-02-28T22:08:47.457Z,5.77
2019-02-28T22:11:18.330Z,5.93
2019-02-28T22:13:49.065Z,5.95
2019-02-28T22:16:19.718Z,5.92
2019-02-28T22:18:50.592Z,5.91
2019-02-28T22:21:21.449Z,5.89
2019-02-28T22:23:52.203Z,5.92
2019-02-28T22:26:22.731Z,5.90
2019-02-28T22:28:53.589Z,5.85
2019-02-28T22:31:38.977Z,5.74
2019-02-28T22:34:11.380Z,5.61
2019-02-28T22:36:42.726Z,5.60
2019-02-28T22:39:13.397Z,5.49
2019-02-28T22:41:44.149Z,5.41
2019-02-28T22:44:14.989Z,5.35
2019-02-28T22:46:45.758Z,5.32
2019-02-28T22:49:17.111Z,5.32
2019-02-28T22:51:47.986Z,5.24
2019-02-28T22:54:18.738Z,5.15
2019-02-28T22:56:49.390Z,5.10
2019-02-28T22:59:20.244Z,5.01
2019-02-28T23:01:50.998Z,4.89
2019-02-28T23:04:21.633Z,4.86
2019-02-28T23:06:52.403Z,4.76
2019-02-28T23:09:23.055Z,4.70
2019-02-28T23:11:53.914Z,4.63
2019-02-28T23:14:24.648Z,4.55
2019-02-28T23:16:55.419Z,4.46
2019-02-28T23:19:26.071Z,4.35
2019-02-28T23:21:57.014Z,4.21
2019-02-28T23:24:27.664Z,4.08
2019-02-28T23:27:12.755Z,4.06
2019-02-28T23:29:48.636Z,4.01
2019-02-28T23:32:40.244Z,3.97
2019-02-28T23:35:20.302Z,3.99
2019-02-28T23:37:50.755Z,4.03
2019-02-28T23:40:21.532Z,4.06
2019-02-28T23:42:52.462Z,4.10
2019-02-28T23:45:23.215Z,4.14
2019-02-28T23:47:53.868Z,4.16
2019-02-28T23:50:25.650Z,4.10
2019-02-28T23:52:57.112Z,4.07
2019-02-28T23:55:27.646Z,4.12
2019-02-28T23:57:57.623Z,4.08
